createdAt,value
2022-08-19T00:00:09.278Z,24.06
2022-08-19T00:03:00.018Z,24.01
2022-08-19T00:05:46.913Z,23.98
2022-08-19T00:08:33.888Z,23.95
2022-08-19T00:11:25.864Z,23.93
2022-08-19T00:14:15.807Z,23.95
2022-08-19T00:17:04.316Z,23.96
2022-08-19T00:19:51.177Z,23.93
2022-08-19T00:22:37.868Z,23.91
2022-08-19T00:25:30.372Z,23.89
2022-08-19T00:28:17.552Z,23.87
2022-08-19T00:31:05.029Z,23.89
2022-08-19T00:33:53.205Z,23.88
2022-08-19T00:36:40.550Z,23.87
2022-08-19T00:39:27.634Z,23.89
2022-08-19T00:42:16.596Z,23.92
2022-08-19T00:45:03.305Z,23.96
2022-08-19T00:48:02.781Z,23.97
2022-08-19T00:50:54.186Z,24.01
2022-08-19T00:53:41.208Z,24.03
2022-08-19T00:56:28.484Z,24.01
2022-08-19T00:59:56.139Z,23.91
2022-08-19T01:02:25.744Z,23.86
2022-08-19T01:05:14.432Z,23.81
2022-08-19T01:08:05.397Z,23.75
2022-08-19T01:10:54.196Z,23.69
2022-08-19T01:13:49.183Z,23.66
2022-08-19T01:16:38.221Z,23.61
2022-08-19T01:19:44.265Z,23.56
2022-08-19T01:22:36.214Z,23.53
2022-08-19T01:25:26.502Z,23.50
2022-08-19T01:28:32.198Z,23.51
2022-08-19T01:31:26.777Z,23.54
2022-08-19T01:34:14.622Z,23.55
2022-08-19T01:37:03.039Z,23.59
2022-08-19T01:39:54.474Z,23.61
2022-08-19T01:42:43.724Z,23.63
2022-08-19T01:45:34.901Z,23.62
2022-08-19T01:48:21.487Z,23.65
2022-08-19T01:51:09.096Z,23.64
2022-08-19T01:54:03.546Z,23.69
2022-08-19T01:56:52.373Z,23.71
2022-08-19T01:59:39.418Z,23.71
2022-08-19T02:02:26.142Z,23.73
2022-08-19T02:05:14.003Z,23.75
2022-08-19T02:08:03.774Z,23.72
2022-08-19T02:10:50.952Z,23.66
2022-08-19T02:13:42.151Z,23.65
2022-08-19T02:16:31.470Z,23.64
2022-08-19T02:19:18.734Z,23.66
2022-08-19T02:22:05.962Z,23.67
2022-08-19T02:24:52.786Z,23.66
2022-08-19T02:27:40.143Z,23.66
2022-08-19T02:30:28.270Z,23.65
2022-08-19T02:33:15.229Z,23.66
2022-08-19T02:36:05.383Z,23.67
2022-08-19T02:38:54.297Z,23.66
2022-08-19T02:41:44.536Z,23.59
2022-08-19T02:44:32.077Z,23.57
2022-08-19T02:47:28.016Z,23.55
2022-08-19T02:50:15.651Z,23.51
2022-08-19T02:53:02.440Z,23.49
2022-08-19T02:55:49.064Z,23.46
2022-08-19T02:58:36.319Z,23.42
2022-08-19T03:01:23.815Z,23.40
2022-08-19T03:04:13.730Z,23.39
2022-08-19T03:07:09.288Z,23.40
2022-08-19T03:09:58.610Z,23.44
2022-08-19T03:12:46.158Z,23.51
2022-08-19T03:15:33.123Z,23.54
2022-08-19T03:18:23.125Z,23.58
2022-08-19T03:21:19.488Z,23.59
2022-08-19T03:24:08.752Z,23.57
2022-08-19T03:26:58.350Z,23.56
2022-08-19T03:29:44.939Z,23.52
2022-08-19T03:32:33.066Z,23.53
2022-08-19T03:35:21.433Z,23.52
2022-08-19T03:38:09.805Z,23.47
2022-08-19T03:40:57.063Z,23.47
2022-08-19T03:43:44.510Z,23.46
2022-08-19T03:46:32.862Z,23.44
2022-08-19T03:49:20.380Z,23.40
2022-08-19T03:52:15.284Z,23.39
2022-08-19T03:55:03.900Z,23.40
2022-08-19T03:57:58.640Z,23.45
2022-08-19T04:00:48.887Z,23.46
2022-08-19T04:03:37.055Z,23.48
2022-08-19T04:06:25.898Z,23.49
2022-08-19T04:09:13.270Z,23.51
2022-08-19T04:12:02.368Z,23.55
2022-08-19T04:14:49.214Z,23.55
2022-08-19T04:17:36.278Z,23.58
2022-08-19T04:20:23.325Z,23.62
2022-08-19T04:23:10.351Z,23.64
2022-08-19T04:26:03.466Z,23.67
2022-08-19T04:28:53.642Z,23.74
2022-08-19T04:31:40.457Z,23.79
2022-08-19T04:34:31.089Z,23.84
2022-08-19T04:37:18.090Z,23.90
2022-08-19T04:40:30.610Z,23.97
2022-08-19T04:43:17.625Z,24.04
2022-08-19T04:46:09.060Z,24.11
2022-08-19T04:48:57.844Z,24.24
2022-08-19T04:51:45.873Z,24.33
2022-08-19T04:54:37.730Z,24.48
2022-08-19T04:57:27.284Z,24.65
2022-08-19T05:00:16.905Z,24.82
2022-08-19T05:03:07.684Z,25.00
2022-08-19T05:05:55.449Z,25.27
2022-08-19T05:08:44.101Z,25.47
2022-08-19T05:11:32.381Z,25.65
2022-08-19T05:14:19.688Z,25.92
2022-08-19T05:17:26.029Z,26.11
2022-08-19T05:20:31.955Z,26.30
2022-08-19T05:23:22.748Z,26.52
2022-08-19T05:26:12.071Z,26.58
2022-08-19T05:28:59.003Z,26.78
2022-08-19T05:31:47.854Z,26.86
2022-08-19T05:34:35.051Z,27.02
2022-08-19T05:37:28.559Z,27.24
2022-08-19T05:40:16.109Z,27.37
2022-08-19T05:43:20.835Z,27.39
2022-08-19T05:46:10.124Z,27.38
2022-08-19T05:48:57.544Z,27.53
2022-08-19T05:51:45.569Z,27.56
2022-08-19T05:54:33.930Z,27.69
2022-08-19T05:57:24.680Z,27.75
2022-08-19T06:00:12.668Z,27.82
2022-08-19T06:03:11.786Z,27.92
2022-08-19T06:06:01.894Z,27.94
2022-08-19T06:08:51.141Z,28.04
2022-08-19T06:11:41.318Z,28.32
2022-08-19T06:14:29.359Z,28.40
2022-08-19T06:17:16.076Z,28.59
2022-08-19T06:20:03.235Z,28.56
2022-08-19T06:22:52.487Z,28.61
2022-08-19T06:25:41.096Z,28.55
2022-08-19T06:28:30.508Z,28.66
2022-08-19T06:31:18.113Z,28.73
2022-08-19T06:34:07.442Z,28.87
2022-08-19T06:36:54.582Z,29.02
2022-08-19T06:39:42.433Z,29.11
2022-08-19T06:42:30.018Z,29.20
2022-08-19T06:45:18.677Z,29.13
2022-08-19T06:48:12.948Z,29.10
2022-08-19T06:51:15.567Z,29.33
2022-08-19T06:54:05.167Z,29.30
2022-08-19T06:56:52.181Z,29.30
2022-08-19T06:59:39.163Z,29.38
2022-08-19T07:02:28.301Z,29.54
2022-08-19T07:05:15.165Z,29.78
2022-08-19T07:08:05.074Z,30.00
2022-08-19T07:10:52.362Z,30.13
2022-08-19T07:13:40.227Z,30.17
2022-08-19T07:16:29.345Z,30.27
2022-08-19T07:19:19.006Z,30.29
2022-08-19T07:22:07.779Z,30.38
2022-08-19T07:25:00.290Z,30.39
2022-08-19T07:27:50.683Z,30.46
2022-08-19T07:30:41.801Z,30.44
2022-08-19T07:33:33.532Z,30.48
2022-08-19T07:36:25.572Z,30.64
2022-08-19T07:39:14.822Z,30.27
2022-08-19T07:42:03.240Z,30.44
2022-08-19T07:44:51.112Z,30.72
2022-08-19T07:47:49.333Z,30.83
2022-08-19T07:50:38.312Z,30.82
2022-08-19T07:53:26.820Z,30.95
2022-08-19T07:56:14.685Z,31.01
2022-08-19T07:59:02.150Z,31.03
2022-08-19T08:01:50.233Z,30.99
2022-08-19T08:04:54.581Z,31.06
2022-08-19T08:08:05.272Z,31.01
2022-08-19T08:10:57.431Z,30.94
2022-08-19T08:13:44.301Z,31.13
2022-08-19T08:16:32.430Z,31.37
2022-08-19T08:19:25.696Z,31.24
2022-08-19T08:22:33.895Z,31.36
2022-08-19T08:25:21.888Z,31.34
2022-08-19T08:28:17.782Z,31.39
2022-08-19T08:31:09.526Z,31.35
2022-08-19T08:33:57.214Z,31.42
2022-08-19T08:36:47.234Z,31.49
2022-08-19T08:39:34.062Z,31.64
2022-08-19T08:42:27.298Z,31.92
2022-08-19T08:45:17.074Z,32.05
2022-08-19T08:48:06.345Z,32.20
2022-08-19T08:51:11.653Z,32.01
2022-08-19T08:53:59.173Z,32.05
2022-08-19T08:56:49.612Z,32.06
2022-08-19T08:59:41.777Z,32.23
2022-08-19T09:02:29.845Z,32.19
2022-08-19T09:05:16.955Z,32.14
2022-08-19T09:08:06.356Z,32.10
2022-08-19T09:10:55.306Z,32.05
2022-08-19T09:13:48.253Z,32.12
2022-08-19T09:16:35.358Z,32.09
2022-08-19T09:19:23.710Z,32.06
2022-08-19T09:22:12.021Z,32.06
2022-08-19T09:24:58.991Z,31.83
2022-08-19T09:27:46.476Z,31.91
2022-08-19T09:30:34.173Z,31.78
2022-08-19T09:33:21.327Z,32.01
2022-08-19T09:36:12.140Z,32.20
2022-08-19T09:39:01.099Z,32.00
2022-08-19T09:41:51.078Z,31.86
2022-08-19T09:44:38.155Z,32.02
2022-08-19T09:47:24.797Z,31.90
2022-08-19T09:50:16.583Z,32.03
2022-08-19T09:53:04.884Z,32.12
2022-08-19T09:55:53.931Z,32.10
2022-08-19T09:58:41.448Z,31.96
2022-08-19T10:01:29.650Z,32.21
2022-08-19T10:04:19.898Z,32.51
2022-08-19T10:07:07.609Z,32.49
2022-08-19T10:09:56.175Z,32.11
2022-08-19T10:12:43.541Z,32.08
2022-08-19T10:15:45.027Z,32.27
2022-08-19T10:18:36.145Z,32.44
2022-08-19T10:21:25.609Z,32.56
2022-08-19T10:24:12.759Z,32.52
2022-08-19T10:27:04.309Z,32.56
2022-08-19T10:29:51.651Z,32.72
2022-08-19T10:32:38.648Z,32.66
2022-08-19T10:35:42.599Z,32.74
2022-08-19T10:38:32.432Z,32.67
2022-08-19T10:41:24.144Z,32.70
2022-08-19T10:44:13.916Z,32.83
2022-08-19T10:47:01.225Z,32.69
2022-08-19T10:50:04.418Z,32.42
2022-08-19T10:52:51.934Z,32.34
2022-08-19T10:55:59.437Z,32.08
2022-08-19T10:58:46.317Z,31.81
2022-08-19T11:01:35.534Z,31.62
2022-08-19T11:04:23.524Z,31.43
2022-08-19T11:07:16.297Z,31.48
2022-08-19T11:10:04.005Z,31.53
2022-08-19T11:12:51.712Z,31.55
2022-08-19T11:15:39.482Z,31.42
2022-08-19T11:18:28.201Z,31.06
2022-08-19T11:21:17.987Z,31.00
2022-08-19T11:24:06.909Z,30.85
2022-08-19T11:26:57.899Z,30.98
2022-08-19T11:29:45.229Z,30.76
2022-08-19T11:32:32.438Z,30.79
2022-08-19T11:35:21.143Z,30.79
2022-08-19T11:38:09.839Z,30.71
2022-08-19T11:41:00.058Z,30.68
2022-08-19T11:43:47.024Z,30.52
2022-08-19T11:46:33.981Z,30.41
2022-08-19T11:49:22.092Z,30.57
2022-08-19T11:52:10.476Z,30.44
2022-08-19T11:54:57.408Z,30.59
2022-08-19T11:57:44.716Z,30.37
2022-08-19T12:00:31.724Z,30.36
2022-08-19T12:03:18.507Z,30.31
2022-08-19T12:06:05.857Z,30.28
2022-08-19T12:08:59.298Z,30.35
2022-08-19T12:11:47.766Z,30.38
2022-08-19T12:14:34.501Z,30.34
2022-08-19T12:17:23.931Z,30.04
2022-08-19T12:20:12.060Z,30.05
2022-08-19T12:22:58.580Z,29.94
2022-08-19T12:25:52.681Z,29.87
2022-08-19T12:28:39.980Z,29.91
2022-08-19T12:31:26.784Z,29.96
2022-08-19T12:34:14.068Z,29.96
2022-08-19T12:37:03.649Z,29.95
2022-08-19T12:39:50.792Z,29.56
2022-08-19T12:42:43.218Z,29.55
2022-08-19T12:45:30.552Z,29.75
2022-08-19T12:48:33.225Z,29.84
2022-08-19T12:51:21.506Z,29.84
2022-08-19T12:54:08.377Z,29.65
2022-08-19T12:56:55.508Z,29.29
2022-08-19T12:59:44.045Z,29.36
2022-08-19T13:02:33.128Z,29.37
2022-08-19T13:05:26.173Z,29.37
2022-08-19T13:08:13.490Z,29.13
2022-08-19T13:11:08.297Z,29.24
2022-08-19T13:13:58.493Z,29.03
2022-08-19T13:16:47.421Z,28.98
2022-08-19T13:19:34.421Z,29.08
2022-08-19T13:22:45.555Z,29.04
2022-08-19T13:25:32.547Z,28.94
2022-08-19T13:28:19.320Z,29.07
2022-08-19T13:31:26.856Z,29.00
2022-08-19T13:34:15.978Z,29.14
2022-08-19T13:37:05.078Z,29.18
2022-08-19T13:39:52.802Z,29.05
2022-08-19T13:42:39.524Z,28.68
2022-08-19T13:45:27.129Z,28.79
2022-08-19T13:48:14.086Z,28.78
2022-08-19T13:51:02.551Z,28.92
2022-08-19T13:53:49.634Z,28.78
2022-08-19T13:56:37.617Z,28.57
2022-08-19T13:59:24.839Z,28.68
2022-08-19T14:02:11.847Z,28.75
2022-08-19T14:05:00.242Z,28.58
2022-08-19T14:07:49.172Z,28.47
2022-08-19T14:10:35.684Z,28.47
2022-08-19T14:13:23.905Z,28.43
2022-08-19T14:16:11.612Z,28.44
2022-08-19T14:18:58.428Z,28.29
2022-08-19T14:21:45.447Z,28.36
2022-08-19T14:24:35.268Z,28.36
2022-08-19T14:27:22.094Z,28.48
2022-08-19T14:30:10.992Z,28.27
2022-08-19T14:32:59.096Z,28.07
2022-08-19T14:35:46.251Z,28.14
2022-08-19T14:38:33.126Z,28.09
2022-08-19T14:41:22.816Z,28.07
2022-08-19T14:44:13.351Z,28.02
2022-08-19T14:47:00.574Z,28.18
2022-08-19T14:49:49.605Z,28.20
2022-08-19T14:52:37.434Z,28.05
2022-08-19T14:55:24.820Z,27.82
2022-08-19T14:58:29.640Z,27.88
2022-08-19T15:01:17.032Z,27.93
2022-08-19T15:04:06.648Z,28.08
2022-08-19T15:06:53.405Z,27.97
2022-08-19T15:09:40.716Z,27.99
2022-08-19T15:12:27.786Z,28.08
2022-08-19T15:15:18.346Z,28.18
2022-08-19T15:18:05.706Z,27.90
2022-08-19T15:20:52.677Z,27.82
2022-08-19T15:23:39.729Z,27.84
2022-08-19T15:26:27.427Z,27.83
2022-08-19T15:29:15.554Z,27.65
2022-08-19T15:32:03.916Z,27.65
2022-08-19T15:34:50.945Z,27.76
2022-08-19T15:37:38.029Z,27.81
2022-08-19T15:40:25.583Z,27.57
2022-08-19T15:43:12.435Z,27.45
2022-08-19T15:46:00.182Z,27.50
2022-08-19T15:48:54.716Z,27.55
2022-08-19T15:51:45.645Z,27.64
2022-08-19T15:54:32.857Z,27.50
2022-08-19T15:57:37.276Z,27.46
2022-08-19T16:00:41.562Z,27.51
2022-08-19T16:03:46.635Z,27.37
2022-08-19T16:06:35.852Z,27.37
2022-08-19T16:09:27.582Z,27.25
2022-08-19T16:12:14.576Z,27.38
2022-08-19T16:15:01.751Z,27.21
2022-08-19T16:17:55.429Z,27.21
2022-08-19T16:20:44.358Z,27.21
2022-08-19T16:23:32.663Z,27.32
2022-08-19T16:26:20.681Z,27.26
2022-08-19T16:29:08.773Z,27.19
2022-08-19T16:31:56.876Z,27.20
2022-08-19T16:34:44.740Z,27.20
2022-08-19T16:37:32.778Z,27.17
2022-08-19T16:40:21.105Z,27.07
2022-08-19T16:43:09.852Z,27.04
2022-08-19T16:45:57.739Z,26.94
2022-08-19T16:48:45.475Z,26.86
2022-08-19T16:51:33.922Z,26.72
2022-08-19T16:54:21.234Z,26.79
2022-08-19T16:57:09.583Z,26.82
2022-08-19T16:59:58.855Z,26.89
2022-08-19T17:02:45.772Z,26.87
2022-08-19T17:05:32.989Z,26.85
2022-08-19T17:08:20.490Z,26.84
2022-08-19T17:11:18.298Z,26.80
2022-08-19T17:14:07.267Z,26.77
2022-08-19T17:16:54.263Z,26.78
2022-08-19T17:19:42.599Z,26.73
2022-08-19T17:22:29.931Z,26.70
2022-08-19T17:25:16.863Z,26.62
2022-08-19T17:28:08.011Z,26.45
2022-08-19T17:30:56.756Z,26.40
2022-08-19T17:33:48.084Z,26.42
2022-08-19T17:36:35.959Z,26.34
2022-08-19T17:39:22.924Z,26.26
2022-08-19T17:42:10.846Z,26.22
2022-08-19T17:44:59.676Z,26.16
2022-08-19T17:47:49.214Z,26.10
2022-08-19T17:50:36.511Z,26.07
2022-08-19T17:53:25.075Z,26.03
2022-08-19T17:56:13.228Z,25.99
2022-08-19T17:59:01.773Z,25.95
2022-08-19T18:01:53.456Z,25.91
2022-08-19T18:04:46.836Z,25.85
2022-08-19T18:07:35.914Z,25.83
2022-08-19T18:10:23.955Z,25.82
2022-08-19T18:13:22.580Z,25.81
2022-08-19T18:16:12.574Z,25.80
2022-08-19T18:19:01.295Z,25.76
2022-08-19T18:21:50.033Z,25.76
2022-08-19T18:24:38.795Z,25.71
2022-08-19T18:27:26.269Z,25.69
2022-08-19T18:30:13.711Z,25.65
2022-08-19T18:33:02.089Z,25.64
2022-08-19T18:35:53.005Z,25.62
2022-08-19T18:38:58.351Z,25.62
2022-08-19T18:42:03.122Z,25.59
2022-08-19T18:45:08.400Z,25.55
2022-08-19T18:48:26.785Z,25.54
2022-08-19T18:51:16.265Z,25.52
2022-08-19T18:54:05.195Z,25.51
2022-08-19T18:56:55.807Z,25.54
2022-08-19T18:59:43.277Z,25.53
2022-08-19T19:02:30.355Z,25.49
2022-08-19T19:05:17.721Z,25.45
2022-08-19T19:08:04.899Z,25.52
2022-08-19T19:10:53.590Z,25.47
2022-08-19T19:13:41.311Z,25.46
2022-08-19T19:16:28.961Z,25.42
2022-08-19T19:19:17.401Z,25.38
2022-08-19T19:22:07.335Z,25.34
2022-08-19T19:24:55.582Z,25.32
2022-08-19T19:27:44.234Z,25.32
2022-08-19T19:30:31.916Z,25.27
2022-08-19T19:33:19.498Z,25.36
2022-08-19T19:36:07.585Z,25.44
2022-08-19T19:38:54.703Z,25.41
2022-08-19T19:41:42.846Z,25.36
2022-08-19T19:44:32.726Z,25.36
2022-08-19T19:47:19.844Z,25.29
2022-08-19T19:50:16.037Z,25.36
2022-08-19T19:53:03.302Z,25.34
2022-08-19T19:55:51.694Z,25.30
2022-08-19T19:58:38.945Z,25.25
2022-08-19T20:01:27.556Z,25.19
2022-08-19T20:04:14.944Z,25.18
2022-08-19T20:07:01.804Z,25.15
2022-08-19T20:09:59.697Z,25.15
2022-08-19T20:12:47.415Z,25.16
2022-08-19T20:15:37.948Z,25.10
2022-08-19T20:18:28.804Z,25.07
2022-08-19T20:21:15.853Z,25.15
2022-08-19T20:24:09.824Z,25.21
2022-08-19T20:26:57.068Z,25.19
2022-08-19T20:29:44.899Z,25.18
2022-08-19T20:32:31.931Z,25.13
2022-08-19T20:35:21.713Z,25.10
2022-08-19T20:38:09.603Z,25.02
2022-08-19T20:40:56.617Z,25.00
2022-08-19T20:43:43.679Z,24.99
2022-08-19T20:46:30.849Z,24.96
2022-08-19T20:49:17.917Z,24.91
2022-08-19T20:52:07.945Z,24.84
2022-08-19T20:54:55.264Z,24.80
2022-08-19T20:57:42.591Z,24.78
2022-08-19T21:00:34.773Z,24.76
2022-08-19T21:03:24.150Z,24.74
2022-08-19T21:06:12.913Z,24.71
2022-08-19T21:09:02.382Z,24.68
2022-08-19T21:11:49.596Z,24.65
2022-08-19T21:14:39.328Z,24.65
2022-08-19T21:17:26.576Z,24.62
2022-08-19T21:20:13.441Z,24.57
2022-08-19T21:23:03.748Z,24.54
2022-08-19T21:25:54.874Z,24.52
2022-08-19T21:28:41.737Z,24.51
2022-08-19T21:31:29.003Z,24.45
2022-08-19T21:34:16.160Z,24.39
2022-08-19T21:37:03.142Z,24.35
2022-08-19T21:39:51.036Z,24.33
2022-08-19T21:42:39.843Z,24.32
2022-08-19T21:45:26.396Z,24.35
2022-08-19T21:48:14.782Z,24.37
2022-08-19T21:51:01.803Z,24.43
2022-08-19T21:53:48.869Z,24.46
2022-08-19T21:56:40.093Z,24.46
2022-08-19T21:59:28.216Z,24.51
2022-08-19T22:02:21.330Z,24.54
2022-08-19T22:05:08.933Z,24.51
2022-08-19T22:07:58.057Z,24.56
2022-08-19T22:10:49.159Z,24.56
2022-08-19T22:13:40.000Z,24.55
2022-08-19T22:16:29.181Z,24.57
2022-08-19T22:19:16.380Z,24.56
2022-08-19T22:22:03.516Z,24.53
2022-08-19T22:24:50.672Z,24.50
2022-08-19T22:27:37.675Z,24.45
2022-08-19T22:30:25.594Z,24.46
2022-08-19T22:33:16.934Z,24.48
2022-08-19T22:36:04.780Z,24.43
2022-08-19T22:38:54.190Z,24.41
2022-08-19T22:41:41.606Z,24.37
2022-08-19T22:44:28.453Z,24.33
2022-08-19T22:47:15.084Z,24.32
2022-08-19T22:50:06.367Z,24.29
2022-08-19T22:52:57.888Z,24.27
2022-08-19T22:55:44.512Z,24.28
2022-08-19T22:58:31.180Z,24.29
2022-08-19T23:01:27.701Z,24.29
2022-08-19T23:04:17.377Z,24.31
2022-08-19T23:07:07.665Z,24.30
2022-08-19T23:09:54.473Z,24.31
2022-08-19T23:12:42.802Z,24.28
2022-08-19T23:15:30.634Z,24.25
2022-08-19T23:18:17.265Z,24.26
2022-08-19T23:21:04.988Z,24.23
2022-08-19T23:23:53.538Z,24.17
2022-08-19T23:27:01.430Z,24.11
2022-08-19T23:30:11.497Z,24.08
2022-08-19T23:33:00.521Z,24.08
2022-08-19T23:35:47.520Z,24.07
2022-08-19T23:38:35.093Z,24.09
2022-08-19T23:41:25.798Z,24.10
2022-08-19T23:44:14.635Z,24.13
2022-08-19T23:47:06.214Z,24.13
2022-08-19T23:49:53.745Z,24.09
2022-08-19T23:52:44.381Z,24.04
2022-08-19T23:55:32.834Z,24.01
2022-08-19T23:58:21.154Z,23.96
